Terminal Aerodrome Forecast
Issued by NWS Wilmington, OH

Current Version | Previous Version | Text Only | Print | Product List | Glossary Off
Versions: 1 2 3 4 5 6 7 8 9 10 11 12 13 14 15 16 17 18 19

000
FTUS41 KILN 300500
TAFDAY
TAF
KDAY 300530Z 3006/3106 16007KT P6SM SCT200
     FM301500 21012G20KT P6SM SCT045 BKN120
     FM302000 21015G21KT P6SM VCTS BKN040CB OVC120
     FM302300 22011KT P6SM SCT040 OVC100=

USA.gov is the U.S. government's official web portal to all federal, state and local government web resources and services.